Time;durP1;ratioP1;P1;durP2;ratioP2;P2;SDS_P1;SDS_P2;PMS_P1;PMS_P2;Temp;Humidity;BMP_temperature;BMP_pressure;BME280_temperature;BME280_humidity;BME280_pressure;Samples;Min_cycle;Max_cycle;Signal;HPM_P1;HPM_P2
2022/01/25 00:15:30;;;;;;;25.88;14.23;;;;;;;-8.09;65.88;102868.48;1716094;83;25723;-64
2022/01/25 00:28:45;;;;;;;22.35;9.80;;;;;;;-8.45;66.57;102849.81;1742688;82;25686;-63
2022/01/25 00:31:13;;;;;;;29.57;13.48;;;;;;;-8.49;66.74;102857.13;1730753;81;25527;-62
2022/01/25 00:33:51;;;;;;;28.35;13.43;;;;;;;-8.53;67.01;102851.39;1765448;79;26489;-62
2022/01/25 00:36:22;;;;;;;30.90;14.05;;;;;;;-8.56;66.96;102838.25;1764954;81;25758;-63
2022/01/25 00:38:51;;;;;;;25.43;14.20;;;;;;;-8.59;66.93;102835.16;1764610;80;27255;-62
2022/01/25 00:41:19;;;;;;;26.40;13.35;;;;;;;-8.63;66.95;102839.83;1766379;81;25682;-63
2022/01/25 00:43:46;;;;;;;24.65;11.83;;;;;;;-8.66;66.94;102836.73;1771158;81;25407;-62
2022/01/25 00:46:15;;;;;;;30.10;14.47;;;;;;;-8.68;66.98;102838.84;1736996;82;26736;-63
2022/01/25 00:48:49;;;;;;;23.30;12.75;;;;;;;-8.69;66.79;102836.64;1771257;80;25705;-62
2022/01/25 00:54:12;;;;;;;28.55;12.68;;;;;;;-8.73;66.71;102836.52;1771302;80;25674;-63
2022/01/25 00:56:46;;;;;;;28.42;14.15;;;;;;;-8.79;66.64;102837.69;1735420;81;25846;-62
2022/01/25 00:59:18;;;;;;;31.65;14.23;;;;;;;-8.78;66.69;102849.89;1771192;80;26098;-63
2022/01/25 01:01:52;;;;;;;27.82;14.18;;;;;;;-8.78;66.61;102843.37;1771451;79;25790;-63
2022/01/25 01:04:21;;;;;;;25.82;13.98;;;;;;;-8.75;66.66;102853.45;1737352;81;27468;-63
2022/01/25 01:06:50;;;;;;;30.37;14.73;;;;;;;-8.72;66.48;102847.42;1771976;80;25703;-64
2022/01/25 01:09:21;;;;;;;26.33;13.38;;;;;;;-8.62;66.53;102845.50;1770965;81;25636;-62
2022/01/25 01:12:01;;;;;;;28.52;15.20;;;;;;;-8.54;66.41;102845.27;1740494;81;26740;-63
2022/01/25 01:34:11;;;;;;;26.75;14.20;;;;;;;-8.00;64.86;102816.86;1686161;85;25712;-63
2022/01/25 01:36:45;;;;;;;29.87;14.03;;;;;;;-7.97;64.87;102813.02;1742257;82;26240;-63
2022/01/25 01:43:46;;;;;;;26.40;13.22;;;;;;;-7.79;64.38;102816.86;1753740;81;27493;-63
2022/01/25 01:51:27;;;;;;;30.85;14.30;;;;;;;-7.70;64.57;102802.67;1746197;82;26151;-63
2022/01/25 01:53:49;;;;;;;28.12;13.75;;;;;;;-7.77;63.55;102804.28;1752027;81;25725;-63
2022/01/25 01:56:17;;;;;;;23.47;13.72;;;;;;;-7.83;63.74;102807.18;1791405;79;27472;-63
2022/01/25 01:58:44;;;;;;;27.00;12.40;;;;;;;-7.88;63.79;102805.78;1752792;80;26201;-63
2022/01/25 02:01:15;;;;;;;28.45;13.08;;;;;;;-7.86;64.04;102806.70;1746634;82;25674;-63
2022/01/25 02:03:43;;;;;;;24.37;12.78;;;;;;;-7.83;63.73;102808.48;1790872;78;27212;-63
2022/01/25 02:06:10;;;;;;;29.75;14.10;;;;;;;-7.94;63.21;102817.01;1752844;81;25734;-63
2022/01/25 02:08:37;;;;;;;28.90;12.70;;;;;;;-8.13;63.07;102812.23;1746524;82;27458;-63
2022/01/25 02:11:06;;;;;;;25.97;12.78;;;;;;;-8.21;63.48;102816.87;1755829;80;25685;-63
2022/01/25 02:13:33;;;;;;;27.02;12.35;;;;;;;-8.28;63.34;102817.98;1744313;82;25794;-63
2022/01/25 02:16:05;;;;;;;28.70;13.05;;;;;;;-8.42;63.36;102815.05;1768808;81;26086;-63
2022/01/25 02:24:00;;;;;;;31.05;13.98;;;;;;;-8.57;64.11;102804.77;1744464;82;26032;-63
2022/01/25 02:26:27;;;;;;;29.75;13.93;;;;;;;-8.56;64.21;102803.02;1713952;83;25734;-63
2022/01/25 02:28:58;;;;;;;25.65;13.20;;;;;;;-8.68;63.78;102804.48;1744480;82;26141;-62
2022/01/25 02:31:25;;;;;;;30.10;14.60;;;;;;;-8.74;64.04;102799.56;1742697;82;25806;-63
2022/01/25 02:33:52;;;;;;;30.23;14.87;;;;;;;-8.79;64.17;102795.54;1743672;82;27434;-62
2022/01/25 02:36:27;;;;;;;23.92;13.95;;;;;;;-8.86;64.29;102795.80;1713907;83;25716;-63
2022/01/25 02:38:58;;;;;;;27.32;14.55;;;;;;;-8.89;64.51;102797.02;1738591;82;25742;-64
2022/01/25 02:41:25;;;;;;;27.70;13.40;;;;;;;-8.93;64.41;102797.80;1759651;80;26093;-64
2022/01/25 02:43:56;;;;;;;27.07;14.53;;;;;;;-8.92;64.59;102792.16;1780316;80;25697;-62
2022/01/25 02:49:03;;;;;;;34.23;15.00;;;;;;;-8.91;64.87;102791.31;1757829;81;27274;-63
2022/01/25 02:51:34;;;;;;;30.85;14.47;;;;;;;-8.89;64.69;102794.41;1789492;80;25706;-63
2022/01/25 02:54:04;;;;;;;28.00;13.43;;;;;;;-8.84;64.75;102796.73;1780002;80;26217;-63
2022/01/25 02:56:31;;;;;;;31.17;16.30;;;;;;;-8.81;64.88;102792.00;1789225;80;25727;-63
2022/01/25 02:58:58;;;;;;;29.23;14.60;;;;;;;-8.70;65.04;102784.42;1789300;79;27441;-62
2022/01/25 03:01:25;;;;;;;30.23;14.75;;;;;;;-8.61;65.01;102780.73;1788910;79;25767;-62
2022/01/25 03:03:52;;;;;;;25.75;14.20;;;;;;;-8.55;64.67;102782.17;1789156;80;25706;-62
2022/01/25 03:06:21;;;;;;;31.07;14.18;;;;;;;-8.45;64.83;102783.66;1789224;80;26089;-62
2022/01/25 03:08:50;;;;;;;26.95;13.05;;;;;;;-8.37;64.62;102775.56;1789514;80;25422;-62
2022/01/25 03:11:19;;;;;;;29.45;13.50;;;;;;;-8.36;64.36;102774.31;1788522;79;28109;-63
2022/01/25 03:13:56;;;;;;;28.05;13.10;;;;;;;-8.40;63.61;102771.60;1784236;79;25966;-63
2022/01/25 03:22:17;;;;;;;36.83;16.30;;;;;;;-8.74;63.92;102780.00;1784317;80;25747;-63
2022/01/25 03:24:45;;;;;;;30.10;14.65;;;;;;;-8.83;64.24;102767.16;1757950;80;28306;-62
2022/01/25 03:27:15;;;;;;;37.63;13.80;;;;;;;-8.82;64.39;102760.23;1738057;80;25775;-63
2022/01/25 03:29:41;;;;;;;34.38;15.80;;;;;;;-8.81;64.31;102757.66;1738998;81;25662;-62
2022/01/25 03:32:09;;;;;;;31.35;16.37;;;;;;;-8.75;64.56;102755.61;1738965;82;26505;-62
2022/01/25 03:34:36;;;;;;;30.68;16.37;;;;;;;-8.60;64.78;102750.28;1738746;82;25884;-62
2022/01/25 03:37:04;;;;;;;31.93;14.68;;;;;;;-8.48;64.79;102751.87;1738762;82;27534;-63
2022/01/25 03:39:31;;;;;;;34.98;16.25;;;;;;;-8.38;64.43;102756.42;1739052;81;25904;-63
2022/01/25 03:41:57;;;;;;;33.05;16.57;;;;;;;-8.32;64.49;102756.98;1741844;81;25694;-63
2022/01/25 03:44:24;;;;;;;37.00;15.93;;;;;;;-8.29;64.22;102751.81;1744353;82;27531;-63
2022/01/25 03:52:06;;;;;;;36.13;15.53;;;;;;;-8.22;64.12;102746.30;1749158;82;25711;-62
2022/01/25 03:54:34;;;;;;;34.08;16.07;;;;;;;-8.15;64.03;102740.80;1749574;82;25588;-63
2022/01/25 03:57:00;;;;;;;30.43;14.53;;;;;;;-8.13;63.88;102737.36;1709641;83;26132;-62
2022/01/25 03:59:29;;;;;;;29.70;15.88;;;;;;;-8.10;63.84;102739.14;1749444;82;25684;-63
2022/01/25 04:01:56;;;;;;;30.40;15.78;;;;;;;-8.06;63.97;102738.37;1712885;83;27482;-63
2022/01/25 04:04:25;;;;;;;31.10;14.40;;;;;;;-8.01;64.00;102741.95;1749041;82;25682;-62
2022/01/25 04:06:54;;;;;;;33.38;15.68;;;;;;;-7.96;63.41;102737.72;1712995;83;25813;-62
2022/01/25 04:09:21;;;;;;;31.73;14.68;;;;;;;-7.96;63.46;102742.94;1749126;82;28283;-62
2022/01/25 04:11:49;;;;;;;26.87;13.62;;;;;;;-7.95;63.43;102746.02;1746877;82;25862;-63
2022/01/25 04:14:21;;;;;;;39.20;17.32;;;;;;;-7.98;63.20;102743.33;1706093;83;27559;-63
2022/01/25 04:16:58;;;;;;;35.85;17.23;;;;;;;-7.98;63.26;102745.94;1738075;82;25765;-63
2022/01/25 04:19:30;;;;;;;35.17;15.83;;;;;;;-7.99;63.40;102744.61;1737372;82;25684;-63
2022/01/25 04:27:21;;;;;;;30.85;15.25;;;;;;;-7.87;63.49;102731.37;1739680;82;27458;-62
2022/01/25 04:29:51;;;;;;;33.20;15.28;;;;;;;-7.99;62.61;102722.41;1705588;84;25756;-62
2022/01/25 04:32:19;;;;;;;30.27;14.68;;;;;;;-8.15;62.65;102723.38;1716078;82;26310;-62
2022/01/25 04:49:11;;;;;;;36.38;18.10;;;;;;;-8.26;64.12;102725.77;1710951;83;26108;-62
2022/01/25 04:51:56;;;;;;;39.65;17.65;;;;;;;-8.35;63.58;102721.26;1708884;83;26108;-63
2022/01/25 04:54:30;;;;;;;35.15;14.78;;;;;;;-8.41;63.68;102717.19;1677123;85;27747;-63
2022/01/25 04:59:28;;;;;;;35.35;16.75;;;;;;;-8.40;63.89;102714.17;1711066;83;25696;-63
2022/01/25 05:01:49;;;;;;;42.60;18.55;;;;;;;-8.28;64.28;102713.55;1676659;83;28192;-64
2022/01/25 05:04:24;;;;;;;37.98;17.92;;;;;;;-8.20;64.19;102707.61;1711139;83;26434;-63
2022/01/25 05:06:48;;;;;;;37.60;18.12;;;;;;;-8.13;64.17;102705.15;1709740;83;29570;-63
2022/01/25 05:09:15;;;;;;;44.75;18.17;;;;;;;-8.06;64.07;102719.66;1710900;83;25796;-63
2022/01/25 05:11:46;;;;;;;32.17;14.47;;;;;;;-7.98;64.03;102705.89;1734831;80;25721;-62
2022/01/25 05:14:30;;;;;;;35.75;17.17;;;;;;;-7.93;63.68;102701.62;1775535;80;26403;-62
2022/01/25 05:19:35;;;;;;;32.08;15.05;;;;;;;-7.87;63.71;102697.81;1775649;80;29586;-64
2022/01/25 05:22:06;;;;;;;35.65;16.50;;;;;;;-7.86;63.60;102712.23;1773281;80;25835;-62
2022/01/25 05:24:35;;;;;;;;;;;;;;;-7.85;63.62;102706.56;1773425;80;25516;-62
2022/01/25 05:27:04;;;;;;;30.17;14.90;;;;;;;-7.92;63.17;102700.77;1782309;80;26226;-61
2022/01/25 05:29:31;;;;;;;30.75;15.05;;;;;;;-7.99;63.25;102698.90;1782587;80;25785;-62
2022/01/25 05:31:59;;;;;;;32.17;14.58;;;;;;;-7.93;63.55;102709.02;1782547;79;28149;-62
2022/01/25 05:34:26;;;;;;;33.05;17.27;;;;;;;-7.91;63.46;102690.34;1782505;80;25476;-63
2022/01/25 05:36:55;;;;;;;34.58;17.32;;;;;;;-8.02;62.58;102687.53;1782283;79;25648;-63
2022/01/25 05:39:27;;;;;;;36.15;16.15;;;;;;;-8.17;62.71;102692.02;1782683;79;26136;-63
2022/01/25 05:42:15;;;;;;;40.85;16.97;;;;;;;-8.19;63.37;102681.96;1797747;78;27410;-62
2022/01/25 05:44:55;;;;;;;35.25;17.48;;;;;;;-8.25;63.33;102682.29;1809207;79;28175;-63
2022/01/25 05:47:14;;;;;;;24.02;12.33;;;;;;;-8.39;63.53;102682.00;1809581;79;25721;-63
2022/01/25 05:49:43;;;;;;;39.27;15.32;;;;;;;-8.52;63.59;102674.37;1811945;79;25760;-62
2022/01/25 05:52:10;;;;;;;37.83;17.23;;;;;;;-8.68;63.82;102670.10;1811832;79;26263;-62
2022/01/25 05:54:39;;;;;;;35.75;16.77;;;;;;;-8.78;64.11;102664.66;1811900;79;25799;-63
2022/01/25 05:57:07;;;;;;;42.83;18.27;;;;;;;-8.86;64.25;102664.47;1811837;79;28131;-64
2022/01/25 05:59:37;;;;;;;35.05;14.98;;;;;;;-8.90;64.62;102661.36;1811816;78;25672;-63
2022/01/25 06:02:05;;;;;;;43.92;17.60;;;;;;;-9.01;64.69;102668.51;1811868;79;25782;-63
2022/01/25 06:04:34;;;;;;;39.80;15.78;;;;;;;-9.08;64.89;102675.73;1804940;78;26338;-62
2022/01/25 06:07:01;;;;;;;35.50;18.25;;;;;;;-9.18;65.22;102680.27;1776694;79;25704;-63
2022/01/25 06:09:28;;;;;;;35.98;15.35;;;;;;;-9.21;65.05;102666.74;1782726;80;28264;-63
2022/01/25 06:11:58;;;;;;;29.57;13.90;;;;;;;-9.17;65.27;102670.30;1780844;80;25718;-63
2022/01/25 06:14:25;;;;;;;35.88;16.48;;;;;;;-9.16;65.38;102675.98;1777913;80;25635;-62
2022/01/25 06:16:52;;;;;;;36.00;16.05;;;;;;;-9.17;65.24;102667.70;1774554;80;26114;-63
2022/01/25 06:19:21;;;;;;;40.63;16.57;;;;;;;-9.14;65.18;102667.34;1782084;80;25814;-64
2022/01/25 06:21:51;;;;;;;34.53;15.68;;;;;;;-9.15;65.06;102658.19;1782086;79;27471;-64
2022/01/25 06:24:20;;;;;;;40.67;16.05;;;;;;;-9.19;65.17;102659.84;1795016;79;25771;-63
2022/01/25 06:26:54;;;;;;;34.78;14.70;;;;;;;-9.17;65.25;102658.57;1783923;78;25780;-63
2022/01/25 06:29:22;;;;;;;38.33;15.78;;;;;;;-9.16;65.35;102659.90;1773312;80;26045;-64
2022/01/25 06:31:52;;;;;;;38.30;17.32;;;;;;;-9.12;65.44;102646.10;1773391;80;25736;-63
2022/01/25 06:34:19;;;;;;;38.05;16.67;;;;;;;-9.07;65.30;102651.83;1773279;80;29656;-64
2022/01/25 06:36:47;;;;;;;30.55;15.15;;;;;;;-9.01;65.38;102649.39;1778635;80;25750;-63
2022/01/25 06:39:15;;;;;;;40.33;15.93;;;;;;;-8.90;65.38;102641.36;1782252;79;25250;-63
2022/01/25 06:41:42;;;;;;;32.83;15.48;;;;;;;-8.79;65.13;102638.11;1793120;79;26686;-63
2022/01/25 06:44:09;;;;;;;32.60;16.00;;;;;;;-8.71;65.01;102652.20;1804236;79;25742;-63
2022/01/25 06:46:38;;;;;;;48.73;18.67;;;;;;;-8.71;64.80;102651.80;1789843;79;28180;-63
2022/01/25 06:49:05;;;;;;;40.10;18.62;;;;;;;-8.68;64.76;102637.92;1782287;80;25899;-63
2022/01/25 06:51:32;;;;;;;29.45;15.32;;;;;;;-8.58;64.81;102638.98;1782645;79;25787;-63
2022/01/25 06:54:00;;;;;;;33.15;15.50;;;;;;;-8.52;64.60;102634.78;1782372;79;26093;-63
2022/01/25 06:56:27;;;;;;;27.50;13.65;;;;;;;-8.46;64.37;102640.93;1777503;80;25730;-63
2022/01/25 06:58:54;;;;;;;30.70;13.60;;;;;;;-8.63;63.55;102648.02;1773635;80;27468;-63
2022/01/25 07:01:21;;;;;;;43.85;17.37;;;;;;;-8.79;63.81;102639.41;1773161;80;25490;-63
2022/01/25 07:03:47;;;;;;;32.08;14.50;;;;;;;-8.78;64.26;102636.83;1773430;80;25722;-63
2022/01/25 07:06:16;;;;;;;37.98;16.23;;;;;;;-8.74;64.48;102628.23;1773214;80;28255;-63
2022/01/25 07:08:45;;;;;;;41.53;15.70;;;;;;;-8.63;64.64;102632.80;1773538;80;25820;-63
2022/01/25 07:11:13;;;;;;;34.95;15.90;;;;;;;-8.58;64.40;102631.16;1773334;80;27487;-63
2022/01/25 07:13:41;;;;;;;28.47;15.18;;;;;;;-8.47;64.65;102633.57;1766258;80;25777;-63
2022/01/25 07:16:10;;;;;;;33.83;15.98;;;;;;;-8.47;63.97;102627.05;1763779;80;26212;-61
2022/01/25 07:18:37;;;;;;;29.50;14.15;;;;;;;-8.56;63.68;102629.47;1771329;81;26053;-63
2022/01/25 07:21:04;;;;;;;35.73;14.47;;;;;;;-8.67;63.67;102625.34;1771176;81;25723;-63
2022/01/25 07:23:31;;;;;;;35.95;15.18;;;;;;;-8.76;63.87;102630.36;1772749;79;28180;-63
2022/01/25 07:26:00;;;;;;;31.40;15.65;;;;;;;-8.83;63.92;102633.25;1758409;80;25734;-63
2022/01/25 07:28:26;;;;;;;29.98;13.62;;;;;;;-8.82;64.28;102631.97;1759568;81;25825;-63
2022/01/25 07:30:53;;;;;;;30.02;15.20;;;;;;;-8.81;64.16;102632.43;1750540;81;26100;-63
2022/01/25 07:33:20;;;;;;;32.03;14.63;;;;;;;-8.86;64.27;102623.64;1724631;81;26343;-62
2022/01/25 07:35:47;;;;;;;28.75;14.25;;;;;;;-8.74;64.63;102615.63;1710930;82;27460;-63
2022/01/25 07:38:15;;;;;;;27.07;13.53;;;;;;;-8.64;64.38;102620.16;1763511;80;25752;-63
2022/01/25 07:40:43;;;;;;;33.28;15.58;;;;;;;-8.67;63.81;102623.59;1758233;79;25840;-62
2022/01/25 07:43:11;;;;;;;25.43;11.97;;;;;;;-8.68;64.05;102644.01;1735856;81;26729;-63
2022/01/25 07:45:39;;;;;;;30.30;14.23;;;;;;;-8.59;64.13;102638.12;1759377;80;25809;-62
2022/01/25 07:48:09;;;;;;;30.15;14.10;;;;;;;-8.48;64.11;102638.33;1763781;81;27494;-63
2022/01/25 07:50:38;;;;;;;26.82;13.43;;;;;;;-8.32;64.15;102634.28;1764140;80;25774;-64
2022/01/25 07:53:07;;;;;;;26.65;12.28;;;;;;;-8.21;63.93;102628.85;1764951;80;25682;-63
2022/01/25 07:55:35;;;;;;;23.22;11.08;;;;;;;-8.14;63.38;102618.52;1762276;81;26079;-62
2022/01/25 07:58:04;;;;;;;29.50;14.00;;;;;;;-8.14;62.72;102627.65;1756560;80;25635;-61
2022/01/25 08:00:33;;;;;;;29.57;13.00;;;;;;;-8.31;62.41;102625.60;1755974;81;27192;-62
2022/01/25 08:03:00;;;;;;;30.30;14.95;;;;;;;-8.41;62.83;102631.48;1759970;81;25750;-61
2022/01/25 08:05:27;;;;;;;26.50;12.68;;;;;;;-8.40;63.15;102627.59;1760792;81;25759;-62
2022/01/25 08:07:58;;;;;;;32.78;14.50;;;;;;;-8.34;63.08;102626.39;1760718;80;25814;-62
2022/01/25 08:10:25;;;;;;;28.75;13.80;;;;;;;-8.26;63.34;102625.25;1758569;81;25952;-63
2022/01/25 08:12:54;;;;;;;29.50;13.03;;;;;;;-8.09;63.41;102618.16;1738610;80;27450;-63
2022/01/25 08:15:24;;;;;;;30.72;15.13;;;;;;;-7.96;63.24;102614.94;1746062;82;25713;-63
2022/01/25 08:17:56;;;;;;;29.12;14.35;;;;;;;-7.83;62.40;102609.91;1785230;78;25713;-63
2022/01/25 08:20:26;;;;;;;21.70;10.60;;;;;;;-7.73;62.68;102612.73;1789169;78;26102;-62
2022/01/25 08:22:53;;;;;;;28.45;12.95;;;;;;;-7.63;62.02;102607.22;1767362;79;26262;-62
2022/01/25 08:25:20;;;;;;;36.60;15.00;;;;;;;-7.62;62.09;102610.28;1713001;82;28150;-62
2022/01/25 08:27:48;;;;;;;34.48;15.28;;;;;;;-7.53;61.98;102609.98;1714626;83;25778;-62
2022/01/25 08:30:16;;;;;;;25.50;13.90;;;;;;;-7.48;61.99;102611.82;1778423;79;25742;-62
2022/01/25 08:32:43;;;;;;;27.40;14.15;;;;;;;-7.34;62.30;102607.22;1765383;80;26548;-63
2022/01/25 08:35:11;;;;;;;34.38;15.88;;;;;;;-7.21;61.86;102606.97;1780291;80;25770;-63
2022/01/25 08:37:40;;;;;;;43.02;16.75;;;;;;;-7.11;61.79;102594.48;1776735;80;27509;-63
2022/01/25 08:40:10;;;;;;;32.90;14.05;;;;;;;-7.05;61.56;102605.06;1782820;80;25878;-62
2022/01/25 08:42:38;;;;;;;23.02;13.03;;;;;;;-6.96;61.10;102596.03;1765421;81;26441;-62
2022/01/25 08:45:08;;;;;;;27.60;14.47;;;;;;;-6.88;60.80;102592.63;1780554;79;26781;-63
2022/01/25 08:47:36;;;;;;;35.10;14.55;;;;;;;-6.81;60.83;102593.16;1753323;79;26786;-62
2022/01/25 08:50:08;;;;;;;26.97;14.05;;;;;;;-6.70;60.91;102587.64;1691327;84;27490;-62
2022/01/25 08:52:38;;;;;;;34.23;14.57;;;;;;;-6.59;59.07;102582.97;1772494;80;25694;-62
2022/01/25 08:55:07;;;;;;;29.15;14.30;;;;;;;-6.61;59.00;102577.28;1784993;80;25677;-62
2022/01/25 08:57:34;;;;;;;29.48;15.38;;;;;;;-6.47;59.96;102584.41;1784959;80;26059;-63
2022/01/25 09:00:06;;;;;;;31.48;14.05;;;;;;;-6.08;59.60;102563.44;1781058;80;25741;-64
2022/01/25 09:02:33;;;;;;;30.48;15.50;;;;;;;-5.83;58.38;102569.72;1773549;80;27270;-63
2022/01/25 09:05:03;;;;;;;30.97;15.20;;;;;;;-5.85;58.41;102561.41;1779411;78;25809;-63
2022/01/25 09:07:30;;;;;;;27.50;15.63;;;;;;;-5.72;59.29;102564.59;1780172;80;25808;-64
2022/01/25 09:09:57;;;;;;;32.33;17.67;;;;;;;-5.50;58.64;102562.11;1781293;78;26488;-62
2022/01/25 09:12:24;;;;;;;35.63;17.92;;;;;;;-5.32;57.47;102547.36;1782567;78;25664;-61
2022/01/25 09:14:52;;;;;;;36.75;17.62;;;;;;;-4.77;57.49;102541.09;1775538;78;27024;-62
2022/01/25 09:17:19;;;;;;;36.58;16.55;;;;;;;-3.66;56.16;102528.54;1759429;79;25681;-62
2022/01/25 09:19:45;;;;;;;29.72;15.35;;;;;;;-2.94;56.00;102521.36;1773971;79;25763;-61
2022/01/25 09:22:12;;;;;;;34.38;18.05;;;;;;;-2.22;52.99;102517.46;1765144;79;26092;-62
2022/01/25 09:24:39;;;;;;;34.50;17.30;;;;;;;-2.10;53.72;102525.72;1720055;82;25813;-60
2022/01/25 09:27:09;;;;;;;36.35;18.12;;;;;;;-1.43;52.51;102516.76;1754061;79;27451;-62
2022/01/25 09:29:36;;;;;;;41.02;22.15;;;;;;;-1.59;48.92;102523.09;1786335;78;25669;-61
2022/01/25 09:32:05;;;;;;;47.17;21.82;;;;;;;-1.41;50.75;102518.09;1779668;79;25848;-61
2022/01/25 09:34:32;;;;;;;35.63;21.45;;;;;;;-0.81;47.91;102521.33;1776058;79;26774;-62
2022/01/25 09:36:59;;;;;;;36.50;20.23;;;;;;;-0.29;48.36;102502.13;1795355;79;25694;-63
2022/01/25 09:39:26;;;;;;;35.43;20.45;;;;;;;0.00;45.70;102493.75;1802528;78;27494;-62
2022/01/25 09:41:57;;;;;;;35.90;20.72;;;;;;;-0.05;43.27;102500.87;1770998;78;25805;-59
2022/01/25 09:44:24;;;;;;;37.42;20.27;;;;;;;0.10;44.27;102490.02;1770050;80;25692;-63
2022/01/25 09:46:53;;;;;;;38.13;21.55;;;;;;;0.56;45.83;102496.29;1782426;79;26476;-63
2022/01/25 09:49:21;;;;;;;40.80;21.20;;;;;;;0.96;45.08;102492.41;1782244;79;25848;-63
2022/01/25 09:51:50;;;;;;;36.55;20.50;;;;;;;1.38;45.47;102474.72;1782310;80;27487;-64
2022/01/25 09:54:20;;;;;;;33.92;19.23;;;;;;;1.92;44.58;102474.36;1782562;80;25772;-63
2022/01/25 09:56:47;;;;;;;31.85;20.23;;;;;;;2.08;41.97;102469.08;1782545;80;25820;-64
2022/01/25 09:59:15;;;;;;;34.70;20.23;;;;;;;2.47;44.23;102468.06;1782482;80;26050;-63
2022/01/25 10:01:42;;;;;;;35.05;19.05;;;;;;;2.49;44.00;102472.41;1782364;80;25793;-64
2022/01/25 10:04:35;;;;;;;36.70;20.00;;;;;;;2.68;42.71;102451.11;1782443;79;28256;-63
2022/01/25 10:07:04;;;;;;;37.88;21.55;;;;;;;2.82;39.19;102452.44;1782221;79;25675;-63
2022/01/25 10:09:32;;;;;;;30.70;17.73;;;;;;;2.80;38.90;102442.77;1782361;80;25741;-63
2022/01/25 10:12:18;;;;;;;26.60;16.82;;;;;;;3.26;40.90;102433.41;1781902;80;26115;-64
2022/01/25 10:15:06;;;;;;;28.73;17.27;;;;;;;3.62;40.55;102429.64;1783652;79;25888;-63
2022/01/25 10:17:34;;;;;;;25.27;16.93;;;;;;;4.17;41.19;102426.03;1759536;78;28191;-64
2022/01/25 10:20:04;;;;;;;27.13;17.25;;;;;;;4.18;39.48;102424.64;1774628;80;25919;-63
2022/01/25 10:22:47;;;;;;;32.28;16.77;;;;;;;3.63;38.05;102424.70;1766518;78;25707;-62
2022/01/25 10:25:36;;;;;;;27.35;17.25;;;;;;;3.96;38.04;102415.19;1791869;79;26101;-63
2022/01/25 10:28:12;;;;;;;25.95;15.68;;;;;;;4.15;39.54;102418.08;1780643;80;25880;-63
2022/01/25 10:30:59;;;;;;;27.37;17.35;;;;;;;4.50;39.35;102407.08;1771982;79;28273;-63
2022/01/25 10:33:36;;;;;;;29.23;19.42;;;;;;;4.53;39.05;102395.84;1776038;80;25736;-63
2022/01/25 10:36:13;;;;;;;38.42;22.70;;;;;;;4.73;39.85;102393.34;1783803;80;25748;-63
2022/01/25 10:38:44;;;;;;;28.12;18.05;;;;;;;4.97;39.29;102387.09;1777340;80;26082;-63
2022/01/25 10:41:21;;;;;;;27.13;17.70;;;;;;;5.27;39.09;102377.45;1763954;79;25804;-63
2022/01/25 10:43:51;;;;;;;28.92;17.30;;;;;;;5.71;38.56;102363.64;1755853;80;27445;-63
2022/01/25 10:46:29;;;;;;;25.80;17.15;;;;;;;6.18;38.22;102363.41;1778037;80;25705;-63
2022/01/25 10:49:04;;;;;;;27.85;17.45;;;;;;;6.53;37.15;102361.43;1778684;80;25688;-64
2022/01/25 10:51:38;;;;;;;30.02;18.87;;;;;;;6.70;35.87;102353.48;1782046;80;26711;-64
2022/01/25 10:54:11;;;;;;;;;;;;;;;6.67;34.96;102356.30;1783960;78;25729;-65
2022/01/25 10:56:43;;;;;;;35.43;21.17;;;;;;;6.92;34.34;102350.27;1778428;80;27567;-63
2022/01/25 10:59:18;;;;;;;30.92;19.50;;;;;;;7.42;36.02;102350.92;1779150;80;26129;-63
2022/01/25 11:02:03;;;;;;;29.15;20.05;;;;;;;7.28;33.26;102350.75;1763282;80;36388;-63
2022/01/25 11:04:34;;;;;;;32.53;21.60;;;;;;;8.02;34.06;102335.40;1778577;80;26801;-64
2022/01/25 11:07:09;;;;;;;29.52;19.80;;;;;;;8.31;34.52;102333.84;1778008;80;25801;-64
2022/01/25 11:09:42;;;;;;;31.87;19.05;;;;;;;8.81;34.51;102324.47;1777752;80;27474;-64
2022/01/25 11:12:15;;;;;;;26.35;19.32;;;;;;;9.14;33.31;102320.80;1778099;80;25733;-63
2022/01/25 11:14:50;;;;;;;30.05;20.68;;;;;;;9.07;31.41;102321.63;1781443;78;32513;-64
2022/01/25 11:17:24;;;;;;;35.03;20.52;;;;;;;9.36;32.12;102309.21;1783336;80;26167;-64
2022/01/25 11:19:54;;;;;;;34.35;19.55;;;;;;;9.67;32.12;102306.02;1783028;80;25803;-64
2022/01/25 11:22:24;;;;;;;30.20;21.35;;;;;;;9.50;27.77;102307.52;1782044;80;27505;-64
2022/01/25 11:24:55;;;;;;;31.73;19.67;;;;;;;8.91;29.12;102307.75;1810124;78;25768;-64
2022/01/25 11:27:26;;;;;;;33.00;18.90;;;;;;;8.89;30.08;102295.38;1825663;78;25719;-64
2022/01/25 11:30:07;;;;;;;23.70;17.50;;;;;;;8.97;30.35;102291.77;1825947;78;26059;-64
2022/01/25 11:32:41;;;;;;;29.42;20.17;;;;;;;9.14;30.62;102283.21;1774591;80;25787;-64
2022/01/25 11:35:13;;;;;;;33.18;19.73;;;;;;;9.52;30.02;102284.97;1776377;80;27439;-63
2022/01/25 11:37:46;;;;;;;29.87;20.43;;;;;;;9.52;30.94;102269.34;1779474;80;25682;-62
2022/01/25 11:40:38;;;;;;;33.70;20.72;;;;;;;9.43;29.45;102266.71;1780062;80;25789;-62
2022/01/25 11:43:13;;;;;;;33.48;20.88;;;;;;;8.75;29.78;102272.86;1761875;80;25796;-63
2022/01/25 11:45:49;;;;;;;34.85;22.85;;;;;;;8.36;30.59;102269.23;1784098;78;25800;-62
2022/01/25 11:48:27;;;;;;;32.73;20.70;;;;;;;7.94;30.91;102271.02;1780790;79;27476;-62
2022/01/25 11:50:54;;;;;;;42.27;21.25;;;;;;;7.51;31.33;102264.77;1733798;82;25832;-62
2022/01/25 11:53:24;;;;;;;34.58;20.70;;;;;;;6.95;30.79;102263.17;1764033;79;25778;-62
2022/01/25 11:55:54;;;;;;;32.23;20.15;;;;;;;6.30;31.07;102259.58;1770047;79;27108;-63
2022/01/25 11:58:33;;;;;;;37.58;22.20;;;;;;;6.11;31.65;102253.75;1759110;79;25792;-62
2022/01/25 12:01:22;;;;;;;36.50;21.42;;;;;;;5.94;32.42;102259.36;1736756;82;27451;-62
2022/01/25 12:04:03;;;;;;;41.50;24.37;;;;;;;5.64;32.95;102246.44;1776724;79;25740;-61
2022/01/25 12:06:44;;;;;;;38.48;22.27;;;;;;;5.31;33.20;102251.43;1730459;82;25813;-61
2022/01/25 12:09:42;;;;;;;43.35;21.93;;;;;;;4.93;33.54;102239.26;1769418;79;26076;-62
2022/01/25 12:12:10;;;;;;;35.75;20.95;;;;;;;4.47;33.52;102241.52;1732402;82;25777;-60
2022/01/25 12:14:48;;;;;;;45.70;21.87;;;;;;;4.09;34.41;102245.19;1761976;79;28587;-64
2022/01/25 12:17:19;;;;;;;38.42;22.25;;;;;;;3.95;34.72;102236.38;1709331;82;25808;-63
2022/01/25 12:19:58;;;;;;;37.35;22.15;;;;;;;3.53;34.82;102241.02;1699218;83;25778;-60
2022/01/25 12:22:37;;;;;;;34.85;20.40;;;;;;;3.24;35.59;102238.42;1735027;82;26789;-61
2022/01/25 12:25:32;;;;;;;37.60;21.33;;;;;;;3.04;36.06;102232.46;1694319;82;25656;-61
2022/01/25 12:28:10;;;;;;;41.77;22.93;;;;;;;2.63;36.19;102230.23;1752858;81;27577;-61
2022/01/25 12:30:43;;;;;;;41.98;21.35;;;;;;;2.33;37.03;102232.06;1755160;80;25794;-61
2022/01/25 12:33:23;;;;;;;44.58;22.13;;;;;;;2.03;37.36;102232.94;1750938;81;25841;-61
2022/01/25 12:36:03;;;;;;;47.00;22.22;;;;;;;1.87;37.94;102237.81;1760438;80;26101;-61
2022/01/25 12:38:43;;;;;;;43.08;22.90;;;;;;;1.91;38.26;102235.08;1752925;80;26925;-60
2022/01/25 12:41:24;;;;;;;37.28;21.17;;;;;;;1.92;38.66;102227.06;1725483;80;27459;-61
2022/01/25 12:43:58;;;;;;;47.83;23.25;;;;;;;2.01;37.93;102230.78;1697858;83;26438;-61
2022/01/25 12:46:29;;;;;;;42.30;23.20;;;;;;;2.01;38.59;102219.30;1701472;83;25835;-62
2022/01/25 12:49:01;;;;;;;47.98;22.17;;;;;;;1.97;38.97;102217.64;1705089;83;26849;-61
2022/01/25 12:51:33;;;;;;;47.93;22.73;;;;;;;1.90;38.16;102209.45;1736572;82;25801;-61
2022/01/25 12:54:04;;;;;;;46.48;20.75;;;;;;;1.69;38.58;102219.75;1763373;80;27484;-61
2022/01/25 12:56:45;;;;;;;41.20;19.67;;;;;;;1.48;39.25;102208.81;1765317;80;25630;-61
2022/01/25 12:59:22;;;;;;;34.67;18.15;;;;;;;1.19;39.39;102210.93;1756132;80;25775;-61
2022/01/25 13:01:51;;;;;;;43.80;18.92;;;;;;;1.01;39.65;102210.96;1758068;80;26234;-61
2022/01/25 13:04:20;;;;;;;26.52;14.30;;;;;;;0.89;40.34;102206.84;1762193;80;25800;-62
2022/01/25 13:06:52;;;;;;;29.23;14.00;;;;;;;0.84;40.14;102196.36;1756404;80;27497;-61
2022/01/25 13:09:27;;;;;;;31.07;14.10;;;;;;;0.84;39.84;102192.83;1767099;80;25748;-61